Tiempo atmosférico en la estación meteorológica de Puerto De San Isidro, León (1510 m.)



Fecha
DESCASC
Temp. máxima en grados centígrados (hora)
DESCASC
Temp. mínima en grados centígrados (hora)
DESCASC
Temp. media en grados centígrados
DESCASC
Racha de viento máxima en m/sg (hora)
DESCASC
Velocidad máxima media en intervalos de 10 minutos(hora)
DESCASC
Precipitaciones diarias en mm
DESCASC
Precipitaciones de 00:00 a 06:00 en mm
DESCASC
Precipitaciones de 06:00 a 12:00 en mm
DESCASC
Precipitaciones de 12:00 a 18:00 en mm
DESCASC
Precipitaciones de 18:00 a 24:00 en mm
DESCASC
23-06-2019 17.8 (11:40) 11.9 (22:50) 14.8 13.61 (15:40) 6.67 (17:20) 4 0 0 1.6 2.4
22-06-2019 19.3 (17:30) 7 (04:30) 13.1 11.11 (09:20) 7.22 (07:40) 0 0 0 0 0
21-06-2019 13.7 (15:50) 6.7 (06:50) 10.2 8.33 (17:10) 6.39 (17:10) 0.2 0 0.2 0 0
20-06-2019 11.7 (13:10) 7.5 (00:00) 9.6 7.5 (12:00) 5 (17:20) 2.8 0 0.2 0.2 2.4
19-06-2019 16.1 (15:20) 9 (00:00) 12.6 11.39 (13:50) 6.39 (17:20) 2.4 2 0 0 0.4
18-06-2019 17.2 (13:50) 10.3 (00:00) 13.8 14.72 (14:30) 6.11 (14:30) 1.6 0 0 0 1.6
17-06-2019 19.6 (15:30) 5.2 (00:00) 12.4 13.06 (11:50) 5.83 (14:10) 0 0 0 0 0
16-06-2019 19.5 (16:50) 3.7 (00:00) 11.6 12.22 (08:40) 7.5 (09:50) 0 0 0 0 0
15-06-2019 12.7 (14:40) 0.3 (00:00) 6.5 9.17 (16:50) 6.94 (17:30) 0.2 0.2 0 0 0
14-06-2019 10.4 (10:00) 0 (00:00) 5.2 10.83 (14:20) 7.78 (14:10) 0.6 0 0 0 0.6
13-06-2019 11.8 (12:30) -0.5 (-00:0) 5.7 11.94 (15:30) 9.17 (15:30) 0 0 0 0 0
12-06-2019 8.4 (15:40) 0.6 (00:00) 4.5 18.89 (01:30) 10.83 (01:30) 0.2 0.2 0 0 0
11-06-2019 3.4 (20:00) 0.1 (00:00) 1.8 16.67 (22:40) 10 (20:40) 21.8 6.8 4.6 5.6 4.8
10-06-2019 9.5 (16:00) -0.4 (00:00) 4.5 9.44 (22:50) 6.67 (14:00) 2 0 0 0 2
09-06-2019 7 (11:50) 2.6 (00:00) 4.8 8.89 (21:40) 6.94 (11:10) 0.8 0 0 0 0.8
08-06-2019 14.2 (15:40) -1.3 (-00:0) 6.4 10.83 (16:40) 7.78 (16:40) 0 0 0 0 0
07-06-2019 8.3 (16:00) 2.1 (00:00) 5.2 15 (04:20) 8.33 (06:00) 0 0 0 0 0
06-06-2019 9.5 (16:30) -0.6 (-00:0) 4.4 21.67 (16:30) 9.72 (17:00) 21.4 0 0 0.6 20.8
05-06-2019 5.7 (15:40) 1.7 (00:00) 3.7 12.78 (08:00) 8.06 (07:50) 8 1.4 2.4 4.2 0
04-06-2019 14.8 (12:50) 4.5 (00:00) 9.7 10.56 (17:20) 7.5 (16:10) 2.4 0 0 1 1.4
03-06-2019 20.3 (17:50) 9 (00:00) 14.6 10.83 (15:20) 6.67 (20:10) 0 0 0 0 0
02-06-2019 22.6 (15:20) 8.4 (00:00) 15.5 11.11 (16:00) 5.83 (19:10) 0 0 0 0 0
01-06-2019 24.7 (16:00) 7 (00:00) 15.9 12.22 (12:30) 5.56 (13:50) 0 0 0 0 0
31-05-2019 23.5 (14:30) 5.2 (00:00) 14.3 10.28 (14:40) 4.72 (15:20) 0 0 0 0 0
30-05-2019 20.8 (17:10) 4.5 (00:00) 12.6 9.17 (16:20) 5 (12:40) 0 0 0 0 0
29-05-2019 15.4 (17:20) 2.2 (00:00) 8.8 10.83 (16:40) 5.28 (13:50) 0 0 0 0 0
28-05-2019 8.9 (15:20) 2.2 (00:00) 5.5 13.61 (15:20) 7.5 (13:30) 0 0 0 0 0

Gráficas

Temp. máximas Temp. mínimas Temp. medias Precipitaciones Rachas de viento máximas Velocidades máximas media en intervalos de 10 minutos

Datos horarios

Fecha y hora oficial Temperatura (ºC) Velocidad del viento (km/h) Dirección del viento Racha (km/h) Dirección de racha Precipitación (mm) Presión (hPa) Tendencia (hPa) Humedad (%)
2019-06-26 23:00:00 14.2 9 Oeste 18 Oeste 0 853.6 0.7 88
2019-06-26 22:00:00 16.1 9 Oeste 19 Oeste 0 853.3 0.6 91
2019-06-26 21:00:00 17.9 15 Noroeste 22 Oeste 0 853.2 0.7 85
2019-06-26 20:00:00 22.5 11 Sudeste 33 Este 0 852.9 0.2 48
2019-06-26 19:00:00 22.8 19 Este 36 Este 0 852.7 -0.3 48
2019-06-26 18:00:00 22.5 21 Este 41 Este 0 852.5 -0.3 49
2019-06-26 17:00:00 22.3 11 Sur 37 Sur 0 852.7 0.3 48
2019-06-26 16:00:00 21.5 16 Sudoeste 50 Sur 0 853 0.6 49
2019-06-26 15:00:00 20.7 21 Sudoeste 59 Sur 0 852.8 0.9 46
2019-06-26 14:00:00 20.4 19 Sudoeste 53 Sur 0 852.4 0.9 49
2019-06-26 13:00:00 19.5 18 Sur 53 Sudoeste 0 852.4 1.3 52
2019-06-26 12:00:00 18.9 15 Sudoeste 49 Sur 0 851.9 0.9 57
2019-06-26 11:00:00 19 11 Nordeste 49 Este 0 851.5 0.4 61
2019-06-26 10:00:00 19.1 16 Sudeste 46 Este 0 851.1 0.1 61
2019-06-26 09:00:00 17.3 19 Este 34 Este 0 851 0 71
2019-06-26 08:00:00 14.4 10 Este 19 Este 0 851.1 0.1 81
2019-06-26 07:00:00 12.9 6 Norte 15 Este 0 851 -0.2 82
2019-06-26 06:00:00 13.2 5 Sudeste 20 Este 0 851 -0.6 83
2019-06-26 05:00:00 12.2 5 Este 12 Sur 0 851 -1 87
2019-06-26 04:00:00 10.8 2 Oeste 9 Nordeste 0 851.2 -1.3 88
2019-06-26 03:00:00 10.9 5 Oeste 8 Noroeste 0 851.6 -1.3 86
2019-06-26 02:00:00 11.8 3 Oeste 7 Noroeste 0 852 -0.8 88
2019-06-26 01:00:00 11.8 0 Calma 7 Noroeste 0 852.5 -0.1 90
2019-06-26 00:00:00 12 2 Oeste 5 Sudoeste 0 852.9 0.4 91
2019-06-25 23:00:00 13.3 2 Sur 13 Noroeste 0 852.8 0.3 93
2019-06-25 22:00:00 13.8 11 Oeste 17 Oeste 0 852.6 0.2 92
2019-06-25 21:00:00 15 12 Oeste 19 Oeste 0 852.5 0.1 87
2019-06-25 20:00:00 17.4 8 Este 21 Este 0 852.5 -0.1 69
2019-06-25 19:00:00 18.2 11 Nordeste 27 Este 0 852.4 -0.4 68
2019-06-25 18:00:00 17.1 17 Este 35 Este 0 852.4 -0.5 71
2019-06-25 17:00:00 17.2 15 Este 26 Este 0 852.6 0.3 75
2019-06-25 16:00:00 15.9 7 Sudeste 29 Sudeste 0.2 852.8 0.6 68
2019-06-25 15:00:00 14 7 Sudeste 30 Este 1.6 852.9 0.8 76
2019-06-25 14:00:00 13.8 21 Este 39 Sudeste 0 852.3 0.7 86
2019-06-25 13:00:00 13.8 8 Sudeste 39 Este 0 852.2 0.2 79
2019-06-25 12:00:00 13.5 12 Sur 33 Sudeste 0.2 852.1 0.8 77
2019-06-25 11:00:00 12.5 20 Este 32 Este 0.4 851.6 0.3 88
2019-06-25 10:00:00 11 13 Este 24 Este 0 852 1.1 93
2019-06-25 09:00:00 10.9 14 Este 23 Este 0 851.3 0.5 93
2019-06-25 08:00:00 10.4 10 Este 19 Este 0 851.3 0.6 93
2019-06-25 07:00:00 10 13 Este 19 Este 0 850.9 0.3 93
2019-06-25 06:00:00 10.1 10 Este 18 Este 0 850.8 -0.1 90
2019-06-25 05:00:00 10.4 10 Sudeste 26 Sudeste 0 850.7 -0.2 86
2019-06-25 04:00:00 9.5 6 Este 18 Este 0 850.6 -0.5 89
2019-06-25 03:00:00 9.4 9 Este 17 Nordeste 0 850.9 -0.4 91
2019-06-25 02:00:00 9.5 11 Este 17 Nordeste 0.2 850.9 -0.1 91
2019-06-25 01:00:00 9.8 6 Este 22 Sudeste 0 851.1 0.7 89
2019-06-25 00:00:00 10.9 9 Sur 35 Sudoeste 0 851.3 0.8 82
2019-06-24 23:00:00 10.8 9 Este 31 Sudoeste 0.4 851 0.8 84
2019-06-24 22:00:00 10.6 14 Este 24 Sudeste 2.4 850.4 0.4 89
2019-06-24 21:00:00 11.1 9 Este 26 Sudeste 1.8 850.5 0.2 87
2019-06-24 20:00:00 11.7 10 Sudeste 37 Sudeste 2.2 850.2 0.1 76
2019-06-24 19:00:00 11.6 9 Nordeste 23 Este 1.8 850 0 88
2019-06-24 18:00:00 11.3 16 Este 35 Este 1.2 850.3 0.6 91
2019-06-24 17:00:00 11.7 15 Este 22 Este 0.6 850.1 0.1 90
2019-06-24 16:00:00 11.5 16 Este 25 Este 1.6 850 0.2 89
2019-06-24 15:00:00 11.1 15 Este 25 Este 1.8 849.7 0.4 89
2019-06-24 14:00:00 10.8 4 Noroeste 13 Oeste 1.6 850 0.5 82
2019-06-24 13:00:00 11.5 8 Oeste 17 Oeste 0.8 849.8 0.5 76
2019-06-24 12:00:00 13.8 6 Norte 21 Oeste 0.2 849.3 0.2 64
2019-06-24 11:00:00 14.2 8 Oeste 26 Oeste 0.2 849.5 0.5 60
2019-06-24 10:00:00 14.5 7 Este 15 Nordeste 0 849.3 0 77
2019-06-24 09:00:00 13.3 10 Este 19 Sudeste 0 849.1 0.6 83
2019-06-24 08:00:00 12.8 8 Este 33 Este 0 849 0.4 82
2019-06-24 07:00:00 13.6 13 Sur 34 Sur 0 849.3 0.1 69
2019-06-24 06:00:00 12.7 8 Este 31 Sur 0.2 848.5 -1 75
2019-06-24 05:00:00 11.2 3 Este 12 Nordeste 0 848.6 -1.1 83
2019-06-24 04:00:00 11.4 8 Este 15 Sudoeste 0 849.2 -0.7 79
2019-06-24 03:00:00 13.1 6 Sur 25 Sur 0 849.5 -0.4 67
2019-06-24 02:00:00 12.1 5 Este 19 Sudeste 0 849.7 0.1 78
2019-06-24 01:00:00 12.7 7 Oeste 26 Sudoeste 0.6 849.9 0.6 72
2019-06-24 00:00:00 13.8 8 Oeste 38 Sur 0 849.9 0.6 74
2019-06-23 23:00:00 12.3 6 Este 22 Sudeste 0.8 849.6 0.6 80
2019-06-23 22:00:00 12.7 3 Sudeste 19 Sudoeste 0 849.3 0.3 79
2019-06-23 21:00:00 13.5 6 Sur 22 Este 1.6 849.3 0.1 75
2019-06-23 20:00:00 14.5 16 Este 36 Este 0 849 -0.3 73
2019-06-23 19:00:00 14.3 17 Este 37 Este 0 849 0.3 68
2019-06-23 18:00:00 12.7 12 Este 42 Este 0.6 849.2 0.2 81
2019-06-23 17:00:00 13.9 11 Sudeste 33 Sur 1 849.3 0.4 73
2019-06-23 16:00:00 17.4 8 Sudeste 49 Sudeste 0 848.7 0 49
2019-06-23 15:00:00 16.4 15 Sur 44 Sur 0 849 0.4 47
2019-06-23 14:00:00 16.6 8 Este 37 Sudeste 0 848.9 0.7 48
2019-06-23 13:00:00 16.3 10 Oeste 40 Sur 0 848.7 0.9 58
2019-06-23 12:00:00 17.3 8 Oeste 39 Este 0 848.6 1.1 53
2019-06-23 11:00:00 17 14 Sur 33 Sudeste 0 848.2 0.6 48
2019-06-23 10:00:00 15 23 Este 41 Este 0 847.8 0.2 53
2019-06-23 09:00:00 13.5 20 Este 30 Sudeste 0 847.5 -0.2 58
2019-06-23 08:00:00 13.9 11 Sudeste 27 Sur 0 847.6 -0.2 50
2019-06-23 07:00:00 14.1 9 Sudeste 36 Este 0 847.6 0 39
2019-06-23 06:00:00 14.8 10 Sudeste 28 Sudeste 0 847.7 -0.1 37
2019-06-23 05:00:00 15.5 9 Sur 30 Sur 0 847.8 -0.3 34
2019-06-23 04:00:00 15.1 11 Sudeste 27 Sur 0 847.6 -0.9 47
2019-06-23 03:00:00 16.3 10 Sur 30 Sur 0 847.8 -1.2 36
2019-06-23 02:00:00 16.8 13 Sur 41 Sudeste 0 848.1 -1 33
2019-06-23 01:00:00 14 5 Sudoeste 15 Sur 0 848.5 -0.3 45
2019-06-23 00:00:00 13.3 4 Oeste 17 Sudeste 0 849 0.2 57
2019-06-22 23:00:00 15.8 6 Sudeste 29 Sudoeste 0 849.1 0.3 52
2019-06-22 22:00:00 16.3 6 Sudeste 26 Sudoeste 0 848.8 -0.2 49
2019-06-22 21:00:00 16.9 4 Noroeste 15 Este 0 848.8 -0.7 51
2019-06-22 20:00:00 18.1 6 Sudeste 27 Sudeste 0 848.8 -0.9 42
2019-06-22 19:00:00 18.3 9 Sur 33 Sur 0 849 -0.9 38
2019-06-22 18:00:00 19.1 11 Sur 35 Sur 0 849.5 -0.7 35
2019-06-22 17:00:00 19 13 Sur 35 Sur 0 849.7 -1.2 40
2019-06-22 16:00:00 17 13 Sur 34 Sudeste 0 849.9 -1.1 44
2019-06-22 15:00:00 16.3 10 Sudeste 31 Este 0 850.2 -0.9 48
2019-06-22 14:00:00 15.3 12 Sudeste 33 Este 0 850.9 0 49
2019-06-22 13:00:00 15.4 22 Este 36 Sudeste 0 851 -0.4 48
2019-06-22 12:00:00 14.8 10 Este 37 Este 0 851.1 -0.1 56
2019-06-22 11:00:00 15.3 21 Este 34 Este 0 850.9 -0.3 57
2019-06-22 10:00:00 11.9 14 Este 40 Este 0 851.4 0.4 66
2019-06-22 09:00:00 10.5 16 Este 32 Este 0 851.2 0.1 76
2019-06-22 08:00:00 9.3 21 Este 36 Este 0 851.2 -0.1 83
2019-06-22 07:00:00 7.8 15 Este 29 Nordeste 0 851 -0.8 90
2019-06-22 06:00:00 7.7 16 Nordeste 31 Sudeste 0 851.1 -0.9 93
2019-06-22 05:00:00 7.3 15 Este 24 Sudeste 0 851.3 -1 94
2019-06-22 04:00:00 7.8 14 Este 31 Sudeste 0 851.8 -0.8 94
2019-06-22 03:00:00 7.8 15 Este 30 Este 0 852 -0.8 94
2019-06-22 02:00:00 7.6 13 Este 23 Este 0 852.3 -0.6 94
2019-06-22 01:00:00 7.3 3 Sudeste 9 Este 0 852.6 -0.2 94
2019-06-22 00:00:00 7.6 5 Sudeste 10 Este 0 852.8 -0.1 94
2019-06-21 23:00:00 8.3 5 Este 16 Noroeste 0 852.9 0.4 94
2019-06-21 22:00:00 8.6 14 Oeste 18 Oeste 0 852.8 0.4 94
2019-06-21 21:00:00 9.2 11 Noroeste 19 Oeste 0 852.9 0.6 94
2019-06-21 20:00:00 9.1 15 Oeste 24 Oeste 0 852.5 0.4 94
2019-06-21 19:00:00 9.3 21 Oeste 27 Oeste 0 852.4 0.1 93
2019-06-21 18:00:00 10.6 18 Oeste 30 Oeste 0 852.3 -0.1 89
2019-06-21 17:00:00 12.7 22 Oeste 29 Oeste 0 852.1 -0.4 81
2019-06-21 16:00:00 13.5 15 Oeste 26 Oeste 0 852.3 -0.2 79
2019-06-21 15:00:00 11.9 18 Oeste 25 Oeste 0 852.4 0 78
2019-06-21 14:00:00 11.5 17 Oeste 24 Noroeste 0 852.5 0.2 82
2019-06-21 13:00:00 10.9 14 Oeste 19 Oeste 0 852.5 0.4 83
2019-06-21 12:00:00 9.6 10 Noroeste 15 Noroeste 0 852.4 0.6 84
2019-06-21 11:00:00 8.6 12 Noroeste 17 Oeste 0 852.3 0.8 90
2019-06-21 10:00:00 7.7 10 Oeste 19 Noroeste 0 852.1 1 94
2019-06-21 09:00:00 7.3 13 Noroeste 18 Noroeste 0.2 851.8 0.8 94
2019-06-21 08:00:00 7 11 Oeste 19 Oeste 0 851.5 0.5 94
2019-06-21 07:00:00 6.7 17 Oeste 22 Oeste 0 851.1 0.1 94
2019-06-21 06:00:00 6.8 13 Oeste 18 Oeste 0 851 -0.1 94
2019-06-21 05:00:00 6.9 12 Oeste 15 Oeste 0 851 -0.4 94
2019-06-21 04:00:00 7 9 Oeste 14 Oeste 0 851 -0.6 94
2019-06-21 03:00:00 7.2 10 Oeste 14 Noroeste 0 851.1 -0.2 94
2019-06-21 02:00:00 7.4 8 Oeste 12 Noroeste 0 851.4 0.1 93
2019-06-21 01:00:00 7.5 8 Oeste 14 Norte 0 851.6 1 93
2019-06-21 00:00:00 7.5 6 Noroeste 12 Oeste 0.2 851.3 0.5 93
2019-06-20 23:00:00 7.7 7 Oeste 17 Noroeste 0.2 851.3 0.9 92
2019-06-20 22:00:00 7.8 4 Oeste 19 Noroeste 0.8 850.6 0.2 93
2019-06-20 21:00:00 8.2 10 Noroeste 21 Noroeste 0 850.8 0.5 92
2019-06-20 20:00:00 8.7 10 Noroeste 25 Noroeste 0 850.4 0.3 91
2019-06-20 19:00:00 9 11 Oeste 25 Noroeste 1.2 850.4 0.1 93
2019-06-20 18:00:00 9.5 13 Noroeste 26 Norte 0 850.3 -0.1 88
2019-06-20 17:00:00 10.1 13 Noroeste 21 Oeste 0.2 850.1 -0.5 89
2019-06-20 16:00:00 9.4 15 Oeste 23 Oeste 0 850.3 -0.2 93
2019-06-20 15:00:00 9.8 14 Oeste 23 Oeste 0 850.4 0 91
2019-06-20 14:00:00 10.6 14 Noroeste 23 Oeste 0 850.6 0.4 89
2019-06-20 13:00:00 10.9 14 Oeste 23 Noroeste 0 850.5 0.2 87
2019-06-20 12:00:00 10.1 18 Oeste 27 Oeste 0 850.4 0.1 90
2019-06-20 11:00:00 10.4 13 Oeste 18 Oeste 0.2 850.2 -0.1 86
2019-06-20 10:00:00 9.3 9 Noroeste 13 Noroeste 0 850.3 0 93
2019-06-20 09:00:00 8.3 6 Noroeste 10 Oeste 0 850.3 0.1 94
2019-06-20 08:00:00 7.8 8 Noroeste 10 Oeste 0 850.3 0 94
2019-06-20 07:00:00 7.6 8 Oeste 10 Oeste 0 850.3 -0.1 94
2019-06-20 06:00:00 7.8 8 Oeste 11 Oeste 0 850.2 -0.4 94
2019-06-20 05:00:00 8 5 Noroeste 10 Noroeste 0 850.3 -0.4 94
2019-06-20 04:00:00 8.1 8 Oeste 13 Noroeste 0 850.4 -0.4 94
2019-06-20 03:00:00 8.3 7 Oeste 9 Oeste 0 850.6 -0.3 94
2019-06-20 02:00:00 8.4 6 Oeste 14 Noroeste 0 850.7 0 94
2019-06-20 01:00:00 8.9 8 Noroeste 13 Noroeste 0 850.8 0.5 94
2019-06-20 00:00:00 9 6 Noroeste 14 Oeste 0 850.9 0.7 94
2019-06-19 23:00:00 9.3 11 Oeste 17 Oeste 0 850.7 0.8 94
2019-06-19 22:00:00 9.6 12 Oeste 18 Oeste 0 850.3 0.7 94
2019-06-19 21:00:00 10 12 Oeste 19 Oeste 0 850.2 0.8 94
2019-06-19 20:00:00 10.5 10 Noroeste 26 Oeste 0 849.9 0.8 93
2019-06-19 19:00:00 10.6 17 Oeste 26 Oeste 0.4 849.6 0.3 92
2019-06-19 18:00:00 12.1 13 Noroeste 32 Noroeste 0 849.4 0.2 85
2019-06-19 17:00:00 13.2 21 Oeste 31 Oeste 0 849.1 -0.1 79
2019-06-19 16:00:00 14.6 15 Oeste 29 Oeste 0 849.3 0.3 69
2019-06-19 15:00:00 14.8 7 Oeste 28 Oeste 0 849.2 0.4 58
2019-06-19 14:00:00 14.5 10 Oeste 41 Oeste 0 849.2 0.7 59
2019-06-19 13:00:00 13.4 10 Noroeste 27 Oeste 0 849 0.7 60
2019-06-19 12:00:00 12.5 7 Noroeste 33 Noroeste 0 848.8 0.7 63
2019-06-19 11:00:00 12 15 Oeste 29 Oeste 0 848.5 0.8 63
2019-06-19 10:00:00 11.1 12 Noroeste 24 Noroeste 0 848.3 0.7 69
2019-06-19 09:00:00 10.7 11 Oeste 24 Oeste 0 848.1 0.6 74
2019-06-19 08:00:00 10.3 11 Este 18 Este 0 847.7 0.5 89
2019-06-19 07:00:00 9.8 5 Sudeste 13 Nordeste 0 847.6 0.4 89
2019-06-19 06:00:00 10.2 3 Sur 13 Este 0.2 847.5 0.2 89
2019-06-19 05:00:00 10.8 9 Oeste 22 Oeste 0 847.2 -0.1 81
2019-06-19 04:00:00 11.1 9 Oeste 35 Oeste 0 847.2 -0.4 77
2019-06-19 03:00:00 11.4 9 Sudoeste 24 Oeste 0.2 847.3 -0.3 77
2019-06-19 02:00:00 11.3 8 Sudoeste 37 Sur 0.4 847.3 -0.5 81
2019-06-19 01:00:00 11.5 9 Sur 33 Sudoeste 1.2 847.6 -0.1 80
2019-06-19 00:00:00 11.5 12 Sur 35 Sur 0.6 847.6 -0.1 80
2019-06-18 23:00:00 11.7 14 Sur 42 Sur 0 847.8 0.3 76
2019-06-18 22:00:00 11.9 13 Sur 35 Sudoeste 0.2 847.7 0.5 73
2019-06-18 21:00:00 11.8 13 Sudeste 29 Sudeste 0.4 847.7 0.7 78
2019-06-18 20:00:00 12.6 15 Sudoeste 44 Sur 0.4 847.5 0.4 72
2019-06-18 19:00:00 14.1 16 Sur 45 Sur 0 847.2 0.3 59
2019-06-18 18:00:00 14.7 17 Sur 36 Sudoeste 0 847 -0.1 58
2019-06-18 17:00:00 14.7 15 Sur 43 Sur 0 847.1 0.1 59
2019-06-18 16:00:00 15.3 15 Sur 47 Sudeste 0 846.9 -0.3 50
2019-06-18 15:00:00 15.3 17 Sur 53 Sur 0 847.1 0 49
2019-06-18 14:00:00 16.7 17 Sur 51 Sudeste 0 847 0 46
2019-06-18 13:00:00 16.5 21 Sur 51 Sur 0 847.2 0.1 41
2019-06-18 12:00:00 16.2 17 Sur 47 Sur 0 847.1 -0.3 34
2019-06-18 11:00:00 15.4 15 Sudoeste 41 Sudoeste 0 847 -0.2 35
2019-06-18 10:00:00 15.2 11 Sur 41 Sudoeste 0 847.1 -0.2 42
2019-06-18 09:00:00 14.7 14 Sur 51 Sur 0 847.4 0.1 37
2019-06-18 08:00:00 14.6 16 Sur 43 Sudoeste 0 847.2 -0.4 34
2019-06-18 07:00:00 13.8 13 Sur 49 Sudoeste 0 847.3 -0.9 33
2019-06-18 06:00:00 13.9 15 Sur 36 Sur 0 847.3 -1.5 32
2019-06-18 05:00:00 11.2 10 Sudeste 27 Este 0 847.6 -1.9 45
2019-06-18 04:00:00 11.4 4 Norte 33 Sur 0 848.2 -1.9 46
2019-06-18 03:00:00 14.3 18 Sur 37 Sur 0 848.8 -1.9 34
2019-06-18 02:00:00 14.5 16 Sur 43 Sur 0 849.5 -0.7 34
2019-06-18 01:00:00 14.4 15 Sur 44 Sur 0 850.1 0.3 33
2019-06-18 00:00:00 14.7 10 Sudoeste 30 Oeste 0 850.7 0.7 29
2019-06-17 23:00:00 14.9 5 Sur 35 Oeste 0 850.2 0.2 29
2019-06-17 22:00:00 14.8 6 Sudeste 22 Sudoeste 0 849.8 -0.5 31
2019-06-17 21:00:00 16.7 13 Sur 31 Sur 0 850 -0.3 22
2019-06-17 20:00:00 17.5 11 Sudoeste 24 Sur 0 850 -0.5 22
2019-06-17 19:00:00 17.8 11 Sudoeste 36 Oeste 0 850.3 -0.6 25
2019-06-17 18:00:00 17.9 7 Sudeste 34 Sur 0 850.3 -0.6 37
2019-06-17 17:00:00 17.9 15 Sudeste 38 Sur 0 850.5 -0.6 31
2019-06-17 16:00:00 18.6 17 Sur 40 Sudoeste 0 850.9 0 29
2019-06-17 15:00:00 18.8 17 Sur 46 Sudoeste 0 850.9 -0.5 26
2019-06-17 14:00:00 18.7 19 Sur 45 Sudoeste 0 851.1 -0.3 32
2019-06-17 13:00:00 18.6 14 Sudoeste 41 Sudeste 0 850.9 -0.5 39
2019-06-17 12:00:00 17.5 13 Sur 47 Sur 0 851.4 0 43
2019-06-17 11:00:00 16.8 11 Sudeste 28 Nordeste 0 851.4 0 43
2019-06-17 10:00:00 16.3 8 Sudeste 27 Sudeste 0 851.4 0 43
2019-06-17 09:00:00 14 14 Este 24 Este 0 851.4 -0.2 61
2019-06-17 08:00:00 9.7 6 Este 15 Este 0 851.4 -0.3 77
2019-06-17 07:00:00 5.7 3 Este 8 Este 0 851.4 -0.6 84
2019-06-17 06:00:00 6.5 4 Sudeste 12 Sur 0 851.6 -0.6 80
2019-06-17 05:00:00 5.4 4 Sudeste 10 Sudeste 0 851.7 -0.8 82
2019-06-17 04:00:00 6.3 4 Oeste 8 Oeste 0 852 -0.8 85
2019-06-17 03:00:00 6.6 3 Sudeste 8 Sudeste 0 852.2 -0.9 82
2019-06-17 02:00:00 7.1 4 Sudeste 10 Noroeste 0 852.5 -0.6 85
2019-06-17 01:00:00 6.8 6 Oeste 11 Oeste 0 852.8 -0.1 88
2019-06-17 00:00:00 7.9 10 Oeste 14 Oeste 0 853.1 0.3 90
2019-06-16 23:00:00 9.1 9 Oeste 14 Oeste 0 853.1 0.4 90
2019-06-16 22:00:00 10.8 9 Oeste 14 Oeste 0 852.9 0.4 85
2019-06-16 21:00:00 13.1 5 Noroeste 19 Oeste 0 852.8 0.4 80
2019-06-16 20:00:00 13.5 14 Oeste 27 Oeste 0 852.7 0.3 81
2019-06-16 19:00:00 14.4 21 Oeste 30 Oeste 0 852.5 -0.2 78
2019-06-16 18:00:00 15.3 23 Oeste 32 Noroeste 0 852.4 -0.3 74
2019-06-16 17:00:00 19.4 13 Oeste 28 Oeste 0 852.4 -0.6 33
2019-06-16 16:00:00 18.5 9 Sudoeste 27 Sudoeste 0 852.7 -0.4 37
2019-06-16 15:00:00 18 8 Oeste 26 Sudoeste 0 852.7 -0.6 38
2019-06-16 14:00:00 16.9 11 Sur 27 Sudeste 0 853 -0.2 45
2019-06-16 13:00:00 16 13 Sudeste 30 Sudeste 0 853.1 0 45
2019-06-16 12:00:00 15.3 9 Sur 33 Sur 0 853.3 0.5 44
2019-06-16 11:00:00 14.2 18 Este 44 Este 0 853.2 0.8 49
2019-06-16 10:00:00 12.3 18 Este 38 Este 0 853.1 0.5 61
2019-06-16 09:00:00 10.9 22 Este 44 Este 0 852.8 0.2 67
2019-06-16 08:00:00 8.3 27 Este 39 Este 0 852.4 -0.3 76
2019-06-16 07:00:00 5.2 5 Nordeste 28 Nordeste 0 852.6 -0.5 87
2019-06-16 06:00:00 6 7 Nordeste 21 Norte 0 852.6 -0.8 93
2019-06-16 05:00:00 5.3 8 Nordeste 29 Este 0 852.7 -0.9 94
2019-06-16 04:00:00 4.6 12 Este 20 Este 0 853.1 -0.8 94
2019-06-16 03:00:00 4.7 3 Este 10 Sudeste 0 853.4 -0.5 94
2019-06-16 02:00:00 4 4 Noroeste 16 Oeste 0 853.6 -0.3 94
2019-06-16 01:00:00 5.5 9 Oeste 18 Noroeste 0 853.9 0.4 94
2019-06-16 00:00:00 5.9 13 Oeste 17 Noroeste 0 853.9 0.3 94
2019-06-15 23:00:00 6.3 9 Noroeste 19 Oeste 0 853.9 0.3 94
2019-06-15 22:00:00 6.6 12 Noroeste 19 Oeste 0 853.5 0.1 94
2019-06-15 21:00:00 7 14 Oeste 21 Oeste 0 853.6 0.3 94
2019-06-15 20:00:00 7.2 17 Oeste 23 Oeste 0 853.6 0.7 93
2019-06-15 19:00:00 8.5 14 Noroeste 26 Oeste 0 853.4 0.5 90
2019-06-15 18:00:00 10 19 Oeste 33 Oeste 0 853.3 0.7 84
2019-06-15 17:00:00 11.3 22 Oeste 33 Oeste 0 852.9 0.2 78
2019-06-15 16:00:00 12.2 15 Noroeste 32 Noroeste 0 852.9 0.4 69
2019-06-15 15:00:00 12.2 8 Noroeste 20 Sur 0 852.6 0.4 54
2019-06-15 14:00:00 11.7 10 Sudeste 26 Sur 0 852.7 0.8 54
2019-06-15 13:00:00 11.5 7 Sudeste 22 Sur 0 852.5 0.7 55
2019-06-15 12:00:00 10.5 9 Sudeste 32 Sudeste 0 852.2 0.7 57
2019-06-15 11:00:00 8.7 13 Sudeste 27 Sudeste 0 851.9 0.9 66
2019-06-15 10:00:00 7.1 10 Nordeste 17 Este 0 851.8 1.2 79
2019-06-15 09:00:00 6.1 10 Este 15 Este 0 851.5 1.3 85
2019-06-15 08:00:00 2.3 2 Sudeste 7 Oeste 0 851 0.7 92
2019-06-15 07:00:00 0.7 5 Oeste 9 Noroeste 0 850.6 0.3 92
2019-06-15 06:00:00 2.1 2 Oeste 10 Oeste 0 850.2 -0.1 90
2019-06-15 05:00:00 3.5 10 Oeste 14 Oeste 0 850.3 0.1 92
2019-06-15 04:00:00 4.4 11 Oeste 16 Oeste 0 850.3 0.1 93
2019-06-15 03:00:00 4.8 7 Noroeste 10 Oeste 0.2 850.3 0.4 94
2019-06-15 02:00:00 4.8 6 Noroeste 8 Noroeste 0 850.2 0.7 93
2019-06-15 01:00:00 4.8 3 Oeste 11 Noroeste 0 850.2 1.6 93
2019-06-15 00:00:00 4.8 9 Noroeste 18 Noroeste 0 849.9 1.7 93
2019-06-14 23:00:00 4.7 11 Noroeste 20 Norte 0 849.5 1.8 92
2019-06-14 22:00:00 5.6 11 Noroeste 19 Noroeste 0.2 848.6 1.3 94
2019-06-14 21:00:00 5.8 12 Noroeste 22 Noroeste 0.2 848.2 1.1 94
2019-06-14 20:00:00 6.1 11 Noroeste 22 Oeste 0.2 847.7 0.9 94
2019-06-14 19:00:00 6.1 14 Noroeste 23 Noroeste 0 847.3 0.7 94
2019-06-14 18:00:00 6.2 16 Oeste 26 Oeste 0 847.1 0.7 94
2019-06-14 17:00:00 6.4 18 Oeste 28 Oeste 0 846.8 0.9 93
2019-06-14 16:00:00 7 20 Oeste 30 Oeste 0 846.6 0.8 91
2019-06-14 15:00:00 8 23 Oeste 39 Oeste 0 846.4 0.7 85
2019-06-14 14:00:00 9.6 27 Oeste 35 Oeste 0 845.9 0.2 84
2019-06-14 13:00:00 9.7 22 Noroeste 35 Noroeste 0 845.8 0.3 82
2019-06-14 12:00:00 9.8 22 Noroeste 27 Noroeste 0 845.7 0.3 78
2019-06-14 11:00:00 9.2 10 Oeste 22 Oeste 0 845.7 0.5 71
2019-06-14 10:00:00 9.4 10 Noroeste 17 Este 0 845.5 0.2 75
2019-06-14 09:00:00 7.8 10 Este 14 Este 0 845.4 0.2 80
2019-06-14 08:00:00 2.1 3 Noroeste 7 Noroeste 0 845.2 -0.1 94
2019-06-14 07:00:00 0.5 3 Sur 8 Este 0 845.3 -0.1 95
2019-06-14 06:00:00 0.1 2 Oeste 8 Noroeste 0 845.2 -0.6 95
2019-06-14 05:00:00 0.7 2 Sudoeste 9 Oeste 0 845.3 -0.8 95
2019-06-14 04:00:00 1.1 5 Oeste 11 Oeste 0 845.4 -1 94
2019-06-14 03:00:00 2.6 5 Oeste 13 Sudoeste 0 845.8 -0.7 94
2019-06-14 02:00:00 2.8 12 Noroeste 25 Oeste 0 846.1 -0.3 94
2019-06-14 01:00:00 4 5 Oeste 10 Oeste 0 846.4 0.3 94
2019-06-14 00:00:00 4.3 4 Noroeste 15 Oeste 0 846.5 0.7 94
2019-06-13 23:00:00 4.6 4 Oeste 12 Noroeste 0 846.4 1.1 94
2019-06-13 22:00:00 4.7 9 Oeste 16 Oeste 0 846.1 1.2 94
2019-06-13 21:00:00 4.9 10 Oeste 23 Oeste 0 845.8 1.2 94
2019-06-13 20:00:00 4.9 18 Oeste 29 Oeste 0 845.3 1 94
2019-06-13 19:00:00 5 23 Oeste 30 Oeste 0 844.9 0.8 94
2019-06-13 18:00:00 5.3 26 Oeste 32 Oeste 0 844.6 0.6 93
2019-06-13 17:00:00 5.6 26 Oeste 39 Noroeste 0 844.3 0.4 93
2019-06-13 16:00:00 6.9 29 Oeste 43 Oeste 0 844.1 0.3 91
2019-06-13 15:00:00 8.4 28 Oeste 41 Oeste 0 844 0.2 81
2019-06-13 14:00:00 10.8 19 Oeste 32 Oeste 0 843.9 0.2 71
2019-06-13 13:00:00 10.2 14 Oeste 30 Sudeste 0 843.8 0.1 66
2019-06-13 12:00:00 10.2 10 Sur 26 Sudoeste 0 843.8 0 54
2019-06-13 11:00:00 8.4 14 Oeste 32 Este 0 843.7 0.1 68
2019-06-13 10:00:00 8.6 9 Nordeste 24 Este 0 843.7 0 69
2019-06-13 09:00:00 4.6 8 Noroeste 14 Oeste 0 843.8 0 83
2019-06-13 08:00:00 1.4 5 Noroeste 18 Oeste 0 843.6 -0.2 94
2019-06-13 07:00:00 0 11 Oeste 17 Oeste 0 843.7 -0.5 95
2019-06-13 06:00:00 -0.2 5 Noroeste 9 Noroeste 0 843.8 -0.8 95
2019-06-13 05:00:00 -0.2 4 Este 8 Oeste 0 843.8 -1.4 95
2019-06-13 04:00:00 1.4 5 Sudoeste 12 Noroeste 0 844.2 -1.3 94
2019-06-13 03:00:00 2 5 Norte 11 Norte 0 844.6 -1.4 94
2019-06-13 02:00:00 2.5 7 Oeste 12 Norte 0 845.2 -1 94
2019-06-13 01:00:00 2.7 3 Norte 11 Oeste 0 845.5 -0.6 94
2019-06-13 00:00:00 2.9 9 Oeste 14 Oeste 0 846 -0.2 94
2019-06-12 23:00:00 2.9 9 Oeste 15 Oeste 0 846.2 0.1 94
2019-06-12 22:00:00 3.4 8 Oeste 17 Noroeste 0 846.1 -0.1 94
2019-06-12 21:00:00 4 9 Noroeste 16 Noroeste 0 846.2 -0.1 93
2019-06-12 20:00:00 4.3 13 Noroeste 21 Noroeste 0 846.1 -0.4 93
2019-06-12 19:00:00 5.8 13 Noroeste 24 Noroeste 0 846.2 -0.3 84
2019-06-12 18:00:00 7.6 13 Oeste 24 Noroeste 0 846.3 -0.6 74
2019-06-12 17:00:00 7.4 11 Oeste 19 Oeste 0 846.5 -0.7 69
2019-06-12 16:00:00 7.9 5 Nordeste 21 Oeste 0 846.5 -0.6 67
2019-06-12 15:00:00 6.9 12 Noroeste 21 Oeste 0 846.9 -0.3 66
2019-06-12 14:00:00 5.7 16 Oeste 24 Oeste 0 847.2 0.3 74
2019-06-12 13:00:00 6 16 Oeste 27 Oeste 0 847.1 0.2 70
2019-06-12 12:00:00 4.9 14 Oeste 25 Oeste 0 847.2 0.5 73
2019-06-12 11:00:00 3.8 17 Oeste 31 Oeste 0 846.9 0.2 73
2019-06-12 10:00:00 3 21 Oeste 32 Oeste 0 846.9 0.5 76
2019-06-12 09:00:00 1.9 17 Oeste 35 Oeste 0 846.7 0.6 83
2019-06-12 08:00:00 1.1 18 Oeste 35 Oeste 0 846.7 0 88
2019-06-12 07:00:00 0.9 24 Oeste 45 Oeste 0 846.4 -0.6 89
2019-06-12 06:00:00 1 28 Oeste 51 Oeste 0 846.1 -1.1 85
2019-06-12 05:00:00 0.6 24 Oeste 50 Oeste 0 846.7 -1 88
2019-06-12 04:00:00 0.8 28 Oeste 51 Oeste 0 847 -1 85
2019-06-12 03:00:00 1.1 37 Oeste 66 Oeste 0 847.2 -1.2 87
2019-06-12 02:00:00 1.3 37 Oeste 68 Oeste 0 847.7 -1.2 88
2019-06-12 01:00:00 1.5 35 Oeste 57 Oeste 0.2 848 -1.1 88
2019-06-12 00:00:00 1.7 31 Oeste 53 Oeste 0 848.4 -1 88
2019-06-11 23:00:00 1.7 34 Oeste 60 Oeste 0.8 848.9 -0.4 91
2019-06-11 22:00:00 2.1 32 Oeste 55 Oeste 1 849.1 -0.3 91
2019-06-11 21:00:00 2.4 26 Oeste 56 Oeste 1.4 849.4 -0.1 91
2019-06-11 20:00:00 3.4 21 Oeste 54 Oeste 1.2 849.3 -0.2 89
2019-06-11 19:00:00 3 27 Oeste 50 Oeste 0.4 849.4 -0.2 92
2019-06-11 18:00:00 2.9 26 Oeste 41 Oeste 0.4 849.5 0.2 92
2019-06-11 17:00:00 2.5 26 Oeste 45 Oeste 2 849.5 0.2 93
2019-06-11 16:00:00 2.4 21 Noroeste 53 Noroeste 0.8 849.6 0.5 93
2019-06-11 15:00:00 2 20 Noroeste 50 Oeste 0.6 849.3 0.4 94
2019-06-11 14:00:00 1.3 23 Oeste 43 Oeste 1.2 849.3 0.9 94
2019-06-11 13:00:00 1 22 Oeste 40 Oeste 0.6 849.1 0.8 94
2019-06-11 12:00:00 0.6 12 Norte 43 Oeste 1 848.9 1.2 94
2019-06-11 11:00:00 0.4 21 Oeste 40 Noroeste 1 848.4 1.1 94
2019-06-11 10:00:00 0.3 26 Oeste 53 Oeste 0.6 848.3 1.1 94
2019-06-11 09:00:00 0.3 20 Noroeste 40 Oeste 1 847.7 0.7 93
2019-06-11 08:00:00 0.7 24 Oeste 51 Noroeste 0 847.3 0.1 88
2019-06-11 07:00:00 0.7 33 Oeste 52 Oeste 1 847.2 -0.3 91
2019-06-11 06:00:00 1 22 Oeste 42 Oeste 2.4 847 -0.8 90
2019-06-11 05:00:00 1.7 17 Noroeste 36 Oeste 1.8 847.2 -1.1 92
2019-06-11 04:00:00 2.3 23 Oeste 40 Oeste 0.8 847.5 -1.4 92
2019-06-11 03:00:00 2.2 23 Oeste 37 Oeste 0.8 847.8 -1.6 90
2019-06-11 02:00:00 2.4 24 Oeste 44 Oeste 0.4 848.3 -1.2 91
2019-06-11 01:00:00 1.9 20 Oeste 33 Oeste 0.6 848.9 -0.3 93
2019-06-11 00:00:00 2.6 16 Noroeste 33 Noroeste 0.8 849.4 -0.2 90
2019-06-10 23:00:00 3.2 18 Noroeste 34 Noroeste 0.8 849.5 -0.3 92
2019-06-10 22:00:00 3.5 13 Noroeste 22 Noroeste 0.2 849.2 -0.7 93
2019-06-10 21:00:00 3.5 10 Noroeste 21 Noroeste 0.2 849.6 -0.4 94
2019-06-10 20:00:00 4 16 Oeste 27 Noroeste 0 849.8 -0.5 93
2019-06-10 19:00:00 5.2 17 Noroeste 30 Oeste 0 849.9 -0.7 91
2019-06-10 18:00:00 6.7 22 Oeste 31 Oeste 0 850 -0.9 84
2019-06-10 17:00:00 8.5 20 Oeste 30 Oeste 0 850.3 -1.1 71
2019-06-10 16:00:00 9 19 Oeste 32 Oeste 0 850.6 -0.7 61
2019-06-10 15:00:00 8.9 20 Oeste 34 Oeste 0 850.9 -0.7 65
2019-06-10 14:00:00 8.4 24 Oeste 33 Oeste 0 851.4 -0.3 66
2019-06-10 13:00:00 7.4 20 Oeste 31 Oeste 0 851.3 -0.1 75
2019-06-10 12:00:00 6.3 15 Oeste 24 Oeste 0 851.6 0.3 73
2019-06-10 11:00:00 4.2 14 Oeste 22 Oeste 0 851.7 0.4 94
2019-06-10 10:00:00 3.8 13 Oeste 18 Noroeste 0 851.4 0.2 94
2019-06-10 09:00:00 3.4 7 Noroeste 14 Oeste 0 851.3 0.2 94
2019-06-10 08:00:00 2.7 12 Oeste 17 Oeste 0 851.3 0.1 94
2019-06-10 07:00:00 1 8 Noroeste 12 Oeste 0 851.2 -0.6 94
2019-06-10 06:00:00 0 5 Oeste 12 Noroeste 0 851.1 -1 95
2019-06-10 05:00:00 -0.4 8 Oeste 10 Noroeste 0 851.2 -1.5 95
2019-06-10 04:00:00 0.5 3 Oeste 10 Oeste 0 851.8 -1.2 94
2019-06-10 03:00:00 2.7 3 Noroeste 15 Oeste 0 852.1 -0.9 94
2019-06-10 02:00:00 3.5 6 Noroeste 15 Oeste 0 852.7 -0.2 94
2019-06-10 01:00:00 3.6 10 Oeste 16 Oeste 0 853 0.6 94
2019-06-10 00:00:00 3.8 7 Noroeste 17 Noroeste 0 853 0.8 94
2019-06-09 23:00:00 4 14 Noroeste 20 Noroeste 0.2 852.9 0.7 94
2019-06-09 22:00:00 4.5 12 Noroeste 32 Noroeste 0.2 852.4 0.5 93
2019-06-09 21:00:00 5 15 Noroeste 26 Noroeste 0.2 852.2 0.6 92
2019-06-09 20:00:00 5.5 8 Noroeste 23 Noroeste 0 852.2 0.7 93
2019-06-09 19:00:00 5.7 13 Noroeste 28 Noroeste 0.2 851.9 0.5 94
2019-06-09 18:00:00 5.7 10 Norte 19 Oeste 0 851.6 0.3 94
2019-06-09 17:00:00 5.7 12 Oeste 23 Oeste 0 851.5 0.3 94
2019-06-09 16:00:00 5.7 13 Oeste 24 Oeste 0 851.4 0.3 94
2019-06-09 15:00:00 5.9 15 Oeste 27 Oeste 0 851.3 0.5 94
2019-06-09 14:00:00 5.7 15 Oeste 24 Oeste 0 851.2 0.8 94
2019-06-09 13:00:00 6.3 14 Noroeste 27 Oeste 0 851.1 0.6 94
2019-06-09 12:00:00 6.6 21 Oeste 31 Oeste 0 850.8 0.5 94
2019-06-09 11:00:00 6.3 22 Oeste 28 Oeste 0 850.4 0.3 94
2019-06-09 10:00:00 5.9 15 Oeste 21 Noroeste 0 850.5 0.4 94
2019-06-09 09:00:00 4.9 16 Oeste 22 Oeste 0 850.3 0.2 94
2019-06-09 08:00:00 4.4 3 Noroeste 18 Oeste 0 850.1 -0.2 94
2019-06-09 07:00:00 4.3 11 Oeste 18 Oeste 0 850.1 -0.5 94
2019-06-09 06:00:00 4 11 Oeste 18 Oeste 0 850.1 -1.1 94
2019-06-09 05:00:00 4 14 Oeste 22 Noroeste 0 850.3 -1.2 94
2019-06-09 04:00:00 3.1 5 Noroeste 21 Oeste 0 850.6 -1.6 94
2019-06-09 03:00:00 4.6 15 Oeste 20 Oeste 0 851.2 -1.2 94
2019-06-09 02:00:00 4.9 19 Oeste 25 Oeste 0 851.5 -1.5 94
2019-06-09 01:00:00 5.2 20 Oeste 26 Oeste 0 852.2 -0.4 94
2019-06-09 00:00:00 5.2 12 Oeste 23 Oeste 0 852.4 0 94
2019-06-08 23:00:00 5.6 5 Noroeste 14 Oeste 0 853 0.4 94
2019-06-08 22:00:00 5.6 4 Oeste 19 Oeste 0 852.6 0 94
2019-06-08 21:00:00 5.8 11 Noroeste 19 Oeste 0 852.4 -0.3 94
2019-06-08 20:00:00 6 14 Oeste 25 Oeste 0 852.6 0.1 93
2019-06-08 19:00:00 6.8 19 Oeste 27 Oeste 0 852.6 -0.2 91
2019-06-08 18:00:00 8.6 17 Noroeste 32 Oeste 0 852.7 -0.3 84
2019-06-08 17:00:00 9.6 28 Oeste 39 Noroeste 0 852.5 -0.9 79
2019-06-08 16:00:00 13 13 Oeste 29 Sur 0 852.8 -1 43
2019-06-08 15:00:00 12.5 8 Norte 31 Sur 0 853 -0.7 43
2019-06-08 14:00:00 11.7 8 Sur 31 Sur 0 853.4 -0.4 50
2019-06-08 13:00:00 10.6 13 Sur 32 Sudeste 0 853.8 -0.2 51
2019-06-08 12:00:00 9.5 10 Sur 30 Este 0 853.7 -0.1 55
2019-06-08 11:00:00 7.8 17 Sudeste 26 Sudeste 0 853.8 0 63
2019-06-08 10:00:00 6.9 8 Este 29 Sudeste 0 854 0.2 64
2019-06-08 09:00:00 4 12 Este 16 Este 0 853.8 0.1 82
2019-06-08 08:00:00 0.1 0 Calma 6 Oeste 0 853.8 0.1 91
2019-06-08 07:00:00 -1.1 2 Oeste 9 Noroeste 0 853.8 0.1 91
2019-06-08 06:00:00 -0.7 4 Oeste 10 Oeste 0 853.7 -0.1 91
2019-06-08 05:00:00 0.2 0 Calma 6 Noroeste 0 853.7 -0.3 92
2019-06-08 04:00:00 -0.2 4 Oeste 9 Noroeste 0 853.7 -0.2 91
2019-06-08 03:00:00 0.7 6 Oeste 8 Oeste 0 853.8 0 90
2019-06-08 02:00:00 2.2 5 Oeste 13 Oeste 0 854 0.6 91
2019-06-08 01:00:00 3 6 Oeste 17 Oeste 0 853.9 1.2 91
2019-06-08 00:00:00 3 6 Noroeste 16 Oeste 0 853.8 1.3 92
2019-06-07 23:00:00 2.7 8 Oeste 15 Oeste 0 853.4 1.5 89
2019-06-07 22:00:00 3 4 Oeste 15 Oeste 0 852.7 1.4 85
2019-06-07 21:00:00 4.3 15 Oeste 27 Oeste 0 852.5 1.9 85
2019-06-07 20:00:00 5.4 20 Oeste 27 Oeste 0 851.9 1.9 79
2019-06-07 19:00:00 6.5 12 Oeste 27 Oeste 0 851.3 1.8 70
2019-06-07 18:00:00 7.1 17 Oeste 28 Oeste 0 850.6 1.6 65
2019-06-07 17:00:00 7.9 13 Oeste 36 Oeste 0 850 1.6 60
2019-06-07 16:00:00 7.9 10 Oeste 23 Oeste 0 849.5 1.9 50
2019-06-07 15:00:00 7.3 11 Oeste 23 Oeste 0 849 2.3 51
2019-06-07 14:00:00 7.2 14 Oeste 32 Noroeste 0 848.4 2.8 54
2019-06-07 13:00:00 7 21 Noroeste 37 Noroeste 0 847.6 2.9 57
2019-06-07 12:00:00 6.2 22 Noroeste 43 Noroeste 0 846.7 3 57
2019-06-07 11:00:00 5.6 28 Oeste 46 Oeste 0 845.6 3 60
2019-06-07 10:00:00 4.5 22 Oeste 32 Oeste 0 844.7 3.3 65
2019-06-07 09:00:00 3.4 9 Noroeste 19 Oeste 0 843.7 3.2 66
2019-06-07 08:00:00 3 7 Oeste 36 Oeste 0 842.6 2.6 62
2019-06-07 07:00:00 2.4 21 Oeste 48 Oeste 0 841.4 2 63
2019-06-07 06:00:00 2.7 30 Oeste 50 Oeste 0 840.5 1.9 63
2019-06-07 05:00:00 2.7 28 Oeste 54 Oeste 0 840 1.5 64
2019-06-07 04:00:00 2.9 17 Oeste 45 Oeste 0 839.4 1.3 73
2019-06-07 03:00:00 2.9 27 Oeste 45 Oeste 0 838.6 0.9 71
2019-06-07 02:00:00 3.1 13 Oeste 37 Noroeste 0 838.5 0.8 77
2019-06-07 01:00:00 3.8 7 Noroeste 42 Norte 0 838.1 0.7 68
2019-06-07 00:00:00 3.9 13 Sur 45 Oeste 0 837.7 0.9 67
2019-06-06 23:00:00 4.6 13 Oeste 54 Noroeste 0 837.7 0.3 65
2019-06-06 22:00:00 5.1 12 Sur 58 Sudoeste 4.4 837.4 -0.7 75
2019-06-06 21:00:00 7.4 23 Sur 63 Sur 4 836.8 -1.7 79
2019-06-06 20:00:00 7.2 23 Sur 59 Sur 6.8 837.4 -1.5 78
2019-06-06 19:00:00 6.5 19 Sur 75 Sur 5.6 838.1 -1.7 78
2019-06-06 18:00:00 8.1 26 Sur 73 Sur 0.6 838.5 -1.6 63
2019-06-06 17:00:00 8.3 35 Sur 78 Sur 0 838.9 -2.4 60
2019-06-06 16:00:00 8.1 26 Sur 68 Sudoeste 0 839.8 -2 55
2019-06-06 15:00:00 7.1 16 Sudoeste 55 Sur 0 840.1 -2.4 59
2019-06-06 14:00:00 7 24 Sudeste 54 Sudoeste 0 841.3 -2.2 62
2019-06-06 13:00:00 7.7 29 Sur 67 Sudoeste 0 841.8 -1.8 57
2019-06-06 12:00:00 5.7 16 Sur 44 Sudoeste 0 842.5 -1.5 63
2019-06-06 11:00:00 4.2 14 Sur 44 Sur 0 843.5 -0.9 69
2019-06-06 10:00:00 4.3 20 Sur 42 Sudoeste 0 843.6 -1.5 69
2019-06-06 09:00:00 2.4 12 Sur 34 Sur 0 844 -1.2 79
2019-06-06 08:00:00 1.4 20 Este 34 Este 0 844.4 -1.1 90
2019-06-06 07:00:00 0.3 12 Este 22 Este 0 845.1 -0.7 91
2019-06-06 06:00:00 0.1 10 Este 18 Este 0 845.2 -0.9 90
2019-06-06 05:00:00 0.3 5 Sudeste 11 Este 0 845.5 -1 90
2019-06-06 04:00:00 0.3 4 Este 13 Sur 0 845.8 -1 88
2019-06-06 03:00:00 -0.4 3 Sudoeste 8 Noroeste 0 846.1 -0.9 90
2019-06-06 02:00:00 0.5 4 Oeste 9 Sur 0 846.5 -0.4 90
2019-06-06 01:00:00 1.1 4 Noroeste 12 Oeste 0 846.8 0.1 87
2019-06-06 00:00:00 2 7 Oeste 12 Oeste 0 847 0.3 87
2019-06-05 23:00:00 2.6 10 Oeste 16 Oeste 0 846.9 0.5 85
2019-06-05 22:00:00 2.5 8 Oeste 23 Oeste 0 846.7 0.4 86
2019-06-05 21:00:00 2.9 17 Oeste 26 Oeste 0 846.7 0.6 87
2019-06-05 20:00:00 2.7 10 Oeste 30 Oeste 0 846.4 0.1 89
2019-06-05 19:00:00 3.7 18 Oeste 28 Oeste 0 846.3 0 86
2019-06-05 18:00:00 4.4 22 Oeste 33 Oeste 0 846.1 -0.3 88
2019-06-05 17:00:00 4.3 23 Oeste 35 Oeste 0.8 846.3 0.2 86
2019-06-05 16:00:00 4.3 18 Noroeste 31 Oeste 0.2 846.3 0.5 86
2019-06-05 15:00:00 3 15 Oeste 35 Oeste 1 846.4 1.1 91
2019-06-05 14:00:00 5.1 14 Oeste 31 Oeste 1 846.1 1.1 84
2019-06-05 13:00:00 4.3 22 Oeste 37 Oeste 1.2 845.8 1.2 88
2019-06-05 12:00:00 3.1 24 Oeste 38 Oeste 0.6 845.3 1.1 89
2019-06-05 11:00:00 4.2 23 Oeste 41 Oeste 0.6 845 1.1 87
2019-06-05 10:00:00 3.2 23 Oeste 40 Oeste 0 844.6 1 88
2019-06-05 09:00:00 2.9 23 Oeste 43 Noroeste 0 844.2 0.7 84
2019-06-05 08:00:00 2.3 27 Oeste 46 Oeste 0.4 843.9 0.1 92
2019-06-05 07:00:00 2.5 26 Oeste 41 Oeste 0.8 843.6 -0.6 91
2019-06-05 06:00:00 2.5 13 Oeste 23 Oeste 0.4 843.5 -0.7 92
2019-06-05 05:00:00 2.8 14 Noroeste 25 Noroeste 0.4 843.8 -0.8 89
2019-06-05 04:00:00 3.1 9 Noroeste 27 Oeste 0 844.2 -0.6 92
2019-06-05 03:00:00 3.3 18 Oeste 31 Oeste 0 844.2 -1.1 91
2019-06-05 02:00:00 3.4 21 Oeste 37 Oeste 0.4 844.6 -0.7 92
2019-06-05 01:00:00 4.1 15 Noroeste 22 Noroeste 0.2 844.8 -0.2 92
2019-06-05 00:00:00 4.5 13 Noroeste 25 Noroeste 0.2 845.3 0.5 90
2019-06-04 23:00:00 4.9 13 Noroeste 23 Noroeste 0 845.3 0.4 91
2019-06-04 22:00:00 4.9 10 Noroeste 24 Noroeste 0 845 0.2 93
2019-06-04 21:00:00 5.8 17 Noroeste 24 Noroeste 0 844.8 0 91
2019-06-04 20:00:00 6.3 14 Noroeste 22 Oeste 0.2 844.9 0.3 93
2019-06-04 19:00:00 7.2 15 Noroeste 29 Oeste 1 844.8 0.5 93
2019-06-04 18:00:00 8.5 17 Oeste 38 Oeste 1 844.8 0.4 93
2019-06-04 17:00:00 8.2 19 Oeste 37 Oeste 0 844.6 0 93
2019-06-04 16:00:00 11.6 16 Noroeste 36 Oeste 0 844.3 -0.5 80
2019-06-04 15:00:00 14.6 9 Sudoeste 27 Sur 0 844.4 -0.2 57
2019-06-04 14:00:00 13.5 8 Sur 24 Sur 0 844.6 0.1 55
2019-06-04 13:00:00 14 12 Sur 33 Oeste 0 844.8 0.6 55
2019-06-04 12:00:00 14.4 12 Oeste 27 Noroeste 0 844.6 0.5 53
2019-06-04 11:00:00 13 11 Noroeste 30 Oeste 0 844.5 0.2 55
2019-06-04 10:00:00 13.3 13 Oeste 34 Oeste 0 844.2 -0.2 55
2019-06-04 09:00:00 12.6 9 Oeste 26 Sudoeste 0 844.1 -0.2 56
2019-06-04 08:00:00 11.1 8 Sur 21 Sudoeste 0 844.3 -0.4 64
2019-06-04 07:00:00 9.1 14 Sur 21 Sur 0 844.4 -0.9 79
2019-06-04 06:00:00 9.6 14 Sur 21 Sur 0 844.3 -1.6 84
2019-06-04 05:00:00 7.1 3 Norte 14 Oeste 0 844.7 -2 92
2019-06-04 04:00:00 8.4 12 Oeste 18 Oeste 0 845.3 -2.2 90
2019-06-04 03:00:00 9.6 6 Sur 20 Oeste 0 845.9 -2.2 76
2019-06-04 02:00:00 13.3 11 Sudoeste 29 Sur 0 846.7 -1.8 55
2019-06-04 01:00:00 10.9 5 Sudoeste 20 Oeste 0 847.5 -1 80
2019-06-04 00:00:00 10 3 Norte 19 Oeste 0 848.1 -0.8 94
2019-06-03 23:00:00 11.2 6 Oeste 22 Oeste 0 848.5 -0.2 94
2019-06-03 22:00:00 11.8 19 Oeste 28 Oeste 0 848.5 -0.4 94
2019-06-03 21:00:00 11.9 19 Oeste 33 Oeste 0 848.9 -0.4 94
2019-06-03 20:00:00 12.3 23 Oeste 31 Oeste 0 848.7 -0.8 93
2019-06-03 19:00:00 13.7 22 Oeste 32 Oeste 0 848.9 -1.2 89
2019-06-03 18:00:00 16.7 16 Oeste 32 Sur 0 849.3 -1.2 74
2019-06-03 17:00:00 19.8 14 Sur 31 Sur 0 849.5 -1.2 42
2019-06-03 16:00:00 18.5 11 Oeste 39 Oeste 0 850.1 -0.9 49
2019-06-03 15:00:00 18.9 15 Oeste 36 Oeste 0 850.5 -0.7 57
2019-06-03 14:00:00 19 12 Oeste 30 Oeste 0 850.7 -0.4 45
2019-06-03 13:00:00 18.7 8 Sur 24 Oeste 0 851 -0.5 47
2019-06-03 12:00:00 16.2 15 Noroeste 26 Noroeste 0 851.2 -0.4 68
2019-06-03 11:00:00 17.8 8 Este 16 Sudeste 0 851.1 -0.3 49
2019-06-03 10:00:00 14.7 6 Este 12 Este 0 851.5 0.1 60
2019-06-03 09:00:00 12 2 Noroeste 13 Noroeste 0 851.6 0.5 73
2019-06-03 08:00:00 10.7 7 Noroeste 13 Sudoeste 0 851.4 0.3 74
2019-06-03 07:00:00 9.3 3 Oeste 8 Sudeste 0 851.4 -0.2 78
2019-06-03 06:00:00 9.8 3 Sudeste 17 Oeste 0 851.1 -0.8 80
2019-06-03 05:00:00 10 15 Oeste 26 Noroeste 0 851.1 -1.2 88
2019-06-03 04:00:00 11 18 Oeste 29 Oeste 0 851.6 -0.8 81
2019-06-03 03:00:00 11.9 13 Oeste 16 Oeste 0 851.9 -0.7 81
2019-06-03 02:00:00 11.7 15 Oeste 20 Oeste 0 852.3 -0.4 84
2019-06-03 01:00:00 11 4 Noroeste 15 Oeste 0 852.4 0 85
2019-06-03 00:00:00 11.4 7 Noroeste 19 Oeste 0 852.6 0.1 86
2019-06-02 23:00:00 12 7 Noroeste 16 Oeste 0 852.7 0.2 87
2019-06-02 22:00:00 12.7 6 Noroeste 16 Oeste 0 852.4 -0.2 78
2019-06-02 21:00:00 14.4 14 Oeste 27 Oeste 0 852.5 -0.2 81
2019-06-02 20:00:00 15.7 19 Noroeste 30 Oeste 0 852.5 -0.2 77
2019-06-02 19:00:00 17.8 14 Oeste 28 Oeste 0 852.6 -0.1 63
2019-06-02 18:00:00 18.3 19 Oeste 28 Oeste 0 852.7 -0.1 58
2019-06-02 17:00:00 19.5 12 Oeste 29 Oeste 0 852.7 -0.7 46
2019-06-02 16:00:00 20.7 20 Oeste 40 Oeste 0 852.7 -1 23
2019-06-02 15:00:00 21.6 10 Sur 32 Sudeste 0 852.8 -0.7 21
2019-06-02 14:00:00 21.7 9 Sudeste 25 Sudeste 0 853.4 -0.1 25
2019-06-02 13:00:00 20.6 11 Sudoeste 26 Sudeste 0 853.7 0.5 17
2019-06-02 12:00:00 20.4 8 Sudoeste 29 Oeste 0 853.5 0.4 22
2019-06-02 11:00:00 20.2 7 Sudoeste 31 Oeste 0 853.5 0.5 27
2019-06-02 10:00:00 19.3 9 Oeste 27 Oeste 0 853.2 0.1 30
2019-06-02 09:00:00 16.7 9 Sur 28 Sur 0 853.1 -0.1 37
2019-06-02 08:00:00 15.7 9 Sur 19 Sur 0 853 -0.5 44
2019-06-02 07:00:00 9.6 3 Noroeste 10 Noroeste 0 853.1 -0.7 67
2019-06-02 06:00:00 8.8 3 Noroeste 10 Noroeste 0 853.2 -1 71
2019-06-02 05:00:00 8.7 4 Noroeste 11 Noroeste 0 853.5 -1.1 72
2019-06-02 04:00:00 9.2 4 Oeste 6 Oeste 0 853.8 -1.2 72
2019-06-02 03:00:00 9.6 5 Oeste 10 Noroeste 0 854.2 -1.1 70
2019-06-02 02:00:00 10.1 8 Oeste 10 Oeste 0 854.6 -0.6 68
2019-06-02 01:00:00 10.6 5 Oeste 10 Noroeste 0 855 0.2 72
2019-06-02 00:00:00 12.3 6 Oeste 17 Oeste 0 855.3 0.5 74
2019-06-01 23:00:00 13.2 9 Oeste 14 Oeste 0 855.2 0.6 76
2019-06-01 22:00:00 14.7 10 Noroeste 15 Noroeste 0 854.8 0.3 73
2019-06-01 21:00:00 17.9 12 Oeste 22 Oeste 0 854.8 0 61
2019-06-01 20:00:00 20.8 13 Noroeste 25 Noroeste 0 854.6 -0.3 45
2019-06-01 19:00:00 20.8 12 Noroeste 28 Noroeste 0 854.5 -0.7 44
2019-06-01 18:00:00 21.9 16 Noroeste 30 Noroeste 0 854.8 -0.8 44
2019-06-01 17:00:00 22.1 13 Noroeste 28 Noroeste 0 854.9 -1 50
2019-06-01 16:00:00 23.6 14 Oeste 28 Sudeste 0 855.2 -1.1 27
2019-06-01 15:00:00 24.3 6 Sur 31 Oeste 0 855.6 -0.7 25
2019-06-01 14:00:00 22.7 20 Oeste 41 Oeste 0 855.9 -0.4 25
2019-06-01 13:00:00 22.3 12 Oeste 44 Sur 0 856.3 0 29
2019-06-01 12:00:00 22.4 9 Sur 21 Sudeste 0 856.3 0.2 29
2019-06-01 11:00:00 21.1 14 Este 22 Este 0 856.3 0.1 35
2019-06-01 10:00:00 19.7 15 Este 20 Este 0 856.3 0.3 39
2019-06-01 09:00:00 16.9 11 Este 17 Este 0 856.1 0.1 43
2019-06-01 08:00:00 9.7 3 Este 7 Este 0 856.2 -0.1 67
2019-06-01 07:00:00 7 2 Oeste 9 Oeste 0 856 -0.4 73
2019-06-01 06:00:00 7.4 5 Oeste 8 Oeste 0 856 -0.6 70
2019-06-01 05:00:00 8.4 4 Oeste 9 Oeste 0 856.3 -0.6 67
2019-06-01 04:00:00 8.7 6 Oeste 9 Oeste 0 856.4 -0.9 70
2019-06-01 03:00:00 9.3 6 Oeste 9 Oeste 0 856.6 -1 66
2019-06-01 02:00:00 9.5 7 Oeste 10 Oeste 0 856.9 -0.6 65
2019-06-01 01:00:00 10.3 6 Oeste 9 Oeste 0 857.3 0.2 60
2019-06-01 00:00:00 11.1 9 Oeste 12 Oeste 0 857.6 0.5 61
2019-05-31 23:00:00 12.7 8 Noroeste 15 Oeste 0 857.5 0.5 55
2019-05-31 22:00:00 13.4 11 Oeste 15 Oeste 0 857.1 -0.2 56
2019-05-31 21:00:00 19.7 10 Oeste 23 Noroeste 0 857.1 -0.4 38
2019-05-31 20:00:00 21.2 14 Oeste 24 Noroeste 0 857 -0.7 35
2019-05-31 19:00:00 21.8 15 Noroeste 26 Noroeste 0 857.3 -0.5 35
2019-05-31 18:00:00 21.6 15 Noroeste 27 Noroeste 0 857.5 -0.4 30
2019-05-31 17:00:00 21.9 13 Norte 28 Noroeste 0 857.7 -0.5 33
2019-05-31 16:00:00 22.7 14 Noroeste 30 Oeste 0 857.8 -0.5 34
2019-05-31 15:00:00 22.4 14 Noroeste 37 Oeste 0 857.9 -0.4 27
2019-05-31 14:00:00 22.2 8 Norte 24 Este 0 858.2 -0.3 25
2019-05-31 13:00:00 21.9 6 Este 26 Este 0 858.3 -0.1 23
2019-05-31 12:00:00 21.3 13 Este 24 Este 0 858.3 -0.1 23
2019-05-31 11:00:00 20 10 Este 16 Este 0 858.5 0 29
2019-05-31 10:00:00 18.5 11 Este 15 Este 0 858.4 0 33
2019-05-31 09:00:00 15.2 7 Este 11 Este 0 858.4 0 43
2019-05-31 08:00:00 8.4 0 Calma 7 Noroeste 0 858.5 -0.1 63
2019-05-31 07:00:00 5.7 6 Oeste 7 Oeste 0 858.4 -0.5 65
2019-05-31 06:00:00 6 3 Sudoeste 9 Sur 0 858.4 -0.9 62
2019-05-31 05:00:00 6.7 4 Oeste 11 Sur 0 858.6 -1 60
2019-05-31 04:00:00 7.8 3 Noroeste 9 Oeste 0 858.9 -1 57
2019-05-31 03:00:00 7.9 6 Oeste 10 Oeste 0 859.3 -0.7 59
2019-05-31 02:00:00 7.5 6 Oeste 11 Noroeste 0 859.6 -0.4 61
2019-05-31 01:00:00 8.1 8 Oeste 11 Oeste 0 859.9 0.3 61
2019-05-31 00:00:00 9.8 8 Oeste 12 Oeste 0 860 0.6 59
2019-05-30 23:00:00 10.3 7 Oeste 10 Noroeste 0 860 0.7 70
2019-05-30 22:00:00 12.7 6 Oeste 13 Noroeste 0 859.6 0 68
2019-05-30 21:00:00 17.2 11 Noroeste 21 Noroeste 0 859.4 -0.3 55
2019-05-30 20:00:00 19.1 12 Noroeste 27 Noroeste 0 859.3 -0.5 46
2019-05-30 19:00:00 19.7 15 Noroeste 27 Noroeste 0 859.6 -0.3 37
2019-05-30 18:00:00 20.4 10 Norte 29 Noroeste 0 859.7 -0.1 26
2019-05-30 17:00:00 20.6 14 Noroeste 33 Noroeste 0 859.8 0.1 34
2019-05-30 16:00:00 20.2 11 Noroeste 26 Oeste 0 859.9 0.3 32
2019-05-30 15:00:00 19.8 16 Oeste 27 Oeste 0 859.8 0.3 43
2019-05-30 14:00:00 19.2 14 Noroeste 28 Noroeste 0 859.7 0.4 43
2019-05-30 13:00:00 18.9 16 Oeste 26 Oeste 0 859.6 0.3 41
2019-05-30 12:00:00 18.4 14 Oeste 22 Noroeste 0 859.5 0.4 42
2019-05-30 11:00:00 17.8 13 Oeste 18 Noroeste 0 859.3 0.4 43
2019-05-30 10:00:00 16.5 13 Oeste 18 Oeste 0 859.3 0.6 42
2019-05-30 09:00:00 13.6 2 Noroeste 4 Oeste 0 859.1 0.5 47
2019-05-30 08:00:00 8.1 4 Oeste 11 Oeste 0 858.9 0.2 68
2019-05-30 07:00:00 5.4 8 Oeste 11 Oeste 0 858.7 -0.1 66
2019-05-30 06:00:00 4.9 8 Oeste 11 Oeste 0 858.6 -0.2 68
2019-05-30 05:00:00 4.8 8 Oeste 11 Oeste 0 858.7 -0.6 70
2019-05-30 04:00:00 6 2 Sudoeste 10 Noroeste 0 858.8 -0.7 66
2019-05-30 03:00:00 6.3 6 Oeste 12 Noroeste 0 858.8 -0.9 66
2019-05-30 02:00:00 5.4 7 Noroeste 12 Oeste 0 859.3 -0.3 74
2019-05-30 01:00:00 5.5 8 Oeste 11 Noroeste 0 859.5 0.5 72
2019-05-30 00:00:00 6.2 8 Noroeste 13 Oeste 0 859.7 1 79
2019-05-29 23:00:00 8.9 12 Noroeste 24 Oeste 0 859.6 1.1 86
2019-05-29 22:00:00 9.9 15 Oeste 20 Oeste 0 859 0.5 86
2019-05-29 21:00:00 11.7 11 Noroeste 26 Noroeste 0 858.7 0.2 76
2019-05-29 20:00:00 14.7 15 Noroeste 25 Noroeste 0 858.5 0 62
2019-05-29 19:00:00 15 15 Noroeste 30 Noroeste 0 858.5 0.2 60
2019-05-29 18:00:00 15.3 13 Oeste 31 Oeste 0 858.5 0.3 56
2019-05-29 17:00:00 15 13 Noroeste 39 Oeste 0 858.5 0.2 60
2019-05-29 16:00:00 15 13 Noroeste 30 Noroeste 0 858.3 0.1 57
2019-05-29 15:00:00 14.8 14 Oeste 29 Oeste 0 858.2 0.5 64
2019-05-29 14:00:00 14.3 9 Norte 31 Este 0 858.3 0.8 60
2019-05-29 13:00:00 14 12 Nordeste 30 Este 0 858.2 1 52
2019-05-29 12:00:00 13.2 10 Nordeste 28 Noroeste 0 857.7 0.8 61
2019-05-29 11:00:00 12.2 9 Nordeste 24 Noroeste 0 857.5 1.1 58
2019-05-29 10:00:00 10 13 Noroeste 22 Oeste 0 857.2 1.1 65
2019-05-29 09:00:00 7.9 13 Oeste 22 Noroeste 0 856.9 0.9 70
2019-05-29 08:00:00 3.8 15 Noroeste 22 Noroeste 0 856.4 0.4 89
2019-05-29 07:00:00 2.5 13 Noroeste 20 Noroeste 0 856.1 0.1 90
2019-05-29 06:00:00 3.3 13 Oeste 18 Noroeste 0 856 0 90
2019-05-29 05:00:00 3.9 9 Noroeste 20 Noroeste 0 856 -0.1 88
2019-05-29 04:00:00 3.8 11 Noroeste 31 Noroeste 0 856 0 89
2019-05-29 03:00:00 3.4 13 Noroeste 22 Noroeste 0 856 0.2 87
2019-05-29 02:00:00 3.5 13 Noroeste 29 Noroeste 0 856.1 0.5 85
2019-05-29 01:00:00 2.7 14 Noroeste 26 Oeste 0 856 0.6 89
2019-05-29 00:00:00 3.8 17 Noroeste 34 Noroeste 0 855.8 0.7 84
2019-05-28 23:00:00 4.2 21 Noroeste 44 Oeste 0 855.6 0.6 82
2019-05-28 22:00:00 4.9 13 Noroeste 31 Noroeste 0 855.4 0.6 83
2019-05-28 21:00:00 5.6 15 Noroeste 41 Noroeste 0 855.1 0.6 80
2019-05-28 20:00:00 6.4 14 Noroeste 41 Noroeste 0 855 0.6 73
2019-05-28 19:00:00 7 17 Noroeste 44 Noroeste 0 854.8 0.5 73
2019-05-28 18:00:00 7 18 Oeste 36 Oeste 0 854.5 0.5 70
2019-05-28 17:00:00 8 22 Oeste 44 Oeste 0 854.4 0.6 69
2019-05-28 16:00:00 7 22 Noroeste 49 Noroeste 0 854.3 0.9 71
2019-05-28 15:00:00 7.9 22 Oeste 44 Noroeste 0 854 0.9 68
2019-05-28 14:00:00 7 26 Noroeste 46 Noroeste 0 853.8 0.8 71
2019-05-28 13:00:00 6.3 23 Oeste 43 Noroeste 0 853.4 0.6 76
2019-05-28 12:00:00 5.5 22 Oeste 45 Noroeste 0 853.1 0.7 75
2019-05-28 11:00:00 4.4 21 Noroeste 35 Oeste 0 853 0.9 81
2019-05-28 10:00:00 3.2 20 Oeste 31 Noroeste 0 852.8 1.1 83
2019-05-28 09:00:00 2.8 19 Noroeste 27 Noroeste 0 852.4 1.1 81
2019-05-28 08:00:00 2.5 16 Noroeste 24 Noroeste 0 852.1 1.1 85
2019-05-28 07:00:00 2.3 13 Oeste 23 Oeste 0 851.7 0.3 85
2019-05-28 06:00:00 2.4 16 Oeste 27 Oeste 0 851.3 0.1 87
2019-05-28 05:00:00 2.9 11 Oeste 22 Oeste 0 851 -0.4 88
2019-05-28 04:00:00 3 11 Oeste 26 Oeste 0 851.4 -0.3 89
2019-05-28 03:00:00 3.2 18 Oeste 28 Oeste 0 851.2 -0.9 87
2019-05-28 02:00:00 3.4 15 Oeste 23 Oeste 0 851.4 -0.6 87
2019-05-28 01:00:00 3.7 14 Oeste 26 Oeste 0 851.7 0 88
2019-05-28 00:00:00 4 9 Oeste 22 Noroeste 0 852.1 0.5 87